Time;durP1;ratioP1;P1;durP2;ratioP2;P2;SDS_P1;SDS_P2;PMS_P1;PMS_P2;Temp;Humidity;BMP_temperature;BMP_pressure;BME280_temperature;BME280_humidity;BME280_pressure;Samples;Min_cycle;Max_cycle;Signal;HPM_P1;HPM_P2
2020/12/27 00:02:11;;;;;;;;;;;;;;;;;;5061173;28;19936;-85
2020/12/27 00:04:38;;;;;;;;;;;;;;;;;;5061497;28;20435;-85
2020/12/27 00:07:04;;;;;;;;;;;;;;;;;;5059957;28;19964;-85
2020/12/27 00:09:31;;;;;;;;;;;;;;;;;;5060677;28;19937;-85
2020/12/27 00:11:57;;;;;;;;;;;;;;;;;;5060638;28;19941;-85
2020/12/27 00:14:23;;;;;;;;;;;;;;;;;;5061467;28;19941;-85
2020/12/27 00:16:50;;;;;;;;;;;;;;;;;;5061330;28;19960;-85
2020/12/27 00:19:16;;;;;;;;;;;;;;;;;;5061313;28;20293;-85
2020/12/27 00:21:42;;;;;;;;;;;;;;;;;;5061191;28;19966;-85
2020/12/27 00:24:09;;;;;;;;;;;;;;;;;;5061416;28;19947;-84
2020/12/27 00:26:35;;;;;;;;;;;;;;;;;;5061868;28;20284;-85
2020/12/27 00:29:01;;;;;;;;;;;;;;;;;;5061391;28;19927;-85
2020/12/27 00:31:28;;;;;;;;;;;;;;;;;;5061895;28;19926;-84
2020/12/27 00:33:54;;;;;;;;;;;;;;;;;;5061733;28;19920;-85
2020/12/27 00:36:21;;;;;;;;;;;;;;;;;;5060694;28;19943;-85
2020/12/27 00:38:47;;;;;;;;;;;;;;;;;;5061266;28;19943;-85
2020/12/27 00:41:13;;;;;;;;;;;;;;;;;;5061070;28;19921;-84
2020/12/27 00:43:40;;;;;;;;;;;;;;;;;;5062009;28;20304;-85
2020/12/27 00:46:06;;;;;;;;;;;;;;;;;;5060252;28;19921;-85
2020/12/27 00:48:32;;;;;;;;;;;;;;;;;;5060585;28;19927;-84
2020/12/27 00:50:59;;;;;;;;;;;;;;;;;;5061674;28;19920;-85
2020/12/27 00:53:25;;;;;;;;;;;;;;;;;;5063692;28;19921;-85
2020/12/27 00:55:51;;;;;;;;;;;;;;;;;;5063592;28;19974;-85
2020/12/27 00:58:18;;;;;;;;;;;;;;;;;;5061236;28;19921;-85
2020/12/27 01:00:44;;;;;;;;;;;;;;;;;;5052200;28;19921;-85
2020/12/27 01:03:11;;;;;;;;;;;;;;;;;;5045875;28;19979;-85
2020/12/27 01:05:37;;;;;;;;;;;;;;;;;;5049136;28;20514;-85
2020/12/27 01:08:03;;;;;;;;;;;;;;;;;;5076548;28;19921;-85
2020/12/27 01:10:30;;;;;;;;;;;;;;;;;;5061245;28;19925;-85
2020/12/27 01:12:56;;;;;;;;;;;;;;;;;;5061450;28;19921;-85
2020/12/27 01:15:22;;;;;;;;;;;;;;;;;;5061152;28;19924;-85
2020/12/27 01:17:49;;;;;;;;;;;;;;;;;;5061775;28;20381;-85
2020/12/27 01:20:15;;;;;;;;;;;;;;;;;;5061376;28;19920;-85
2020/12/27 01:22:41;;;;;;;;;;;;;;;;;;5061191;28;19925;-85
2020/12/27 01:25:09;;;;;;;;;;;;;;;;;;5062138;28;19920;-85
2020/12/27 01:27:36;;;;;;;;;;;;;;;;;;5071826;28;19932;-85
2020/12/27 01:30:02;;;;;;;;;;;;;;;;;;5070860;28;19921;-85
2020/12/27 01:32:28;;;;;;;;;;;;;;;;;;5061489;28;19921;-85
2020/12/27 01:34:55;;;;;;;;;;;;;;;;;;5060087;28;19921;-85
2020/12/27 01:37:21;;;;;;;;;;;;;;;;;;5059996;28;20377;-85
2020/12/27 01:39:47;;;;;;;;;;;;;;;;;;5059538;28;19924;-85
2020/12/27 01:42:14;;;;;;;;;;;;;;;;;;5060000;28;19920;-85
2020/12/27 01:44:40;;;;;;;;;;;;;;;;;;5060577;28;19921;-85
2020/12/27 01:47:07;;;;;;;;;;;;;;;;;;5060770;28;19990;-86
2020/12/27 01:49:33;;;;;;;;;;;;;;;;;;5060097;28;19921;-85
2020/12/27 01:51:59;;;;;;;;;;;;;;;;;;5060095;28;19925;-86
2020/12/27 01:54:26;;;;;;;;;;;;;;;;;;5062103;28;19925;-85
2020/12/27 01:56:52;;;;;;;;;;;;;;;;;;5064033;28;19921;-85
2020/12/27 01:59:18;;;;;;;;;;;;;;;;;;5060723;28;19921;-85
2020/12/27 02:01:45;;;;;;;;;;;;;;;;;;5060425;28;19929;-85
2020/12/27 02:04:11;;;;;;;;;;;;;;;;;;5059869;28;19920;-85
2020/12/27 02:06:38;;;;;;;;;;;;;;;;;;5059315;28;19930;-83
2020/12/27 02:09:04;;;;;;;;;;;;;;;;;;5057700;28;19921;-83
2020/12/27 02:11:31;;;;;;;;;;;;;;;;;;5056998;28;19920;-83
2020/12/27 02:13:57;;;;;;;;;;;;;;;;;;5057638;28;19920;-83
2020/12/27 02:16:23;;;;;;;;;;;;;;;;;;5058522;28;19921;-83
2020/12/27 02:18:50;;;;;;;;;;;;;;;;;;5063977;28;19924;-83
2020/12/27 02:21:16;;;;;;;;;;;;;;;;;;5062163;28;19925;-83
2020/12/27 02:23:42;;;;;;;;;;;;;;;;;;5058016;28;19928;-83
2020/12/27 02:26:09;;;;;;;;;;;;;;;;;;5057263;28;19921;-83
2020/12/27 02:28:35;;;;;;;;;;;;;;;;;;5057546;28;19924;-83
2020/12/27 02:31:01;;;;;;;;;;;;;;;;;;5057244;28;19921;-83
2020/12/27 02:33:28;;;;;;;;;;;;;;;;;;5057301;28;19928;-83
2020/12/27 02:35:54;;;;;;;;;;;;;;;;;;5057290;28;19946;-83
2020/12/27 02:38:21;;;;;;;;;;;;;;;;;;5057288;28;19927;-83
2020/12/27 02:40:47;;;;;;;;;;;;;;;;;;5057540;28;19982;-83
2020/12/27 02:43:13;;;;;;;;;;;;;;;;;;5062256;28;19928;-82
2020/12/27 02:45:40;;;;;;;;;;;;;;;;;;5068419;28;19920;-83
2020/12/27 02:48:06;;;;;;;;;;;;;;;;;;5057635;28;19928;-83
2020/12/27 02:50:32;;;;;;;;;;;;;;;;;;5060083;28;19928;-83
2020/12/27 02:52:59;;;;;;;;;;;;;;;;;;5069984;28;19920;-83
2020/12/27 02:55:25;;;;;;;;;;;;;;;;;;5058811;28;20376;-82
2020/12/27 02:57:51;;;;;;;;;;;;;;;;;;5056708;28;19921;-83
2020/12/27 03:00:18;;;;;;;;;;;;;;;;;;5056767;28;19975;-82
2020/12/27 03:02:44;;;;;;;;;;;;;;;;;;5056358;28;19928;-83
2020/12/27 03:05:11;;;;;;;;;;;;;;;;;;5056199;28;20284;-83
2020/12/27 03:07:37;;;;;;;;;;;;;;;;;;5056704;28;19920;-82
2020/12/27 03:10:03;;;;;;;;;;;;;;;;;;5056060;28;19967;-83
2020/12/27 03:12:30;;;;;;;;;;;;;;;;;;5056588;28;20332;-83
2020/12/27 03:14:56;;;;;;;;;;;;;;;;;;5056215;28;19974;-83
2020/12/27 03:17:22;;;;;;;;;;;;;;;;;;5055737;28;19927;-84
2020/12/27 03:19:49;;;;;;;;;;;;;;;;;;5056750;28;20353;-83
2020/12/27 03:22:15;;;;;;;;;;;;;;;;;;5059244;28;19921;-82
2020/12/27 03:24:41;;;;;;;;;;;;;;;;;;5063193;28;19921;-83
2020/12/27 03:27:08;;;;;;;;;;;;;;;;;;5062275;28;19920;-83
2020/12/27 03:29:34;;;;;;;;;;;;;;;;;;5062701;28;19921;-83
2020/12/27 03:32:01;;;;;;;;;;;;;;;;;;5062977;28;19971;-80
2020/12/27 03:34:27;;;;;;;;;;;;;;;;;;5062917;28;20407;-83
2020/12/27 03:36:53;;;;;;;;;;;;;;;;;;5062871;28;19920;-83
2020/12/27 03:39:20;;;;;;;;;;;;;;;;;;5062654;28;19924;-82
2020/12/27 03:41:46;;;;;;;;;;;;;;;;;;5062494;28;20430;-83
2020/12/27 03:44:12;;;;;;;;;;;;;;;;;;5062901;28;19921;-82
2020/12/27 03:46:39;;;;;;;;;;;;;;;;;;5062598;28;19921;-83
2020/12/27 03:49:05;;;;;;;;;;;;;;;;;;5062794;28;19921;-83
2020/12/27 03:51:31;;;;;;;;;;;;;;;;;;5062970;28;19927;-83
2020/12/27 03:53:58;;;;;;;;;;;;;;;;;;5062871;28;19920;-83
2020/12/27 03:56:24;;;;;;;;;;;;;;;;;;5062607;28;19924;-82
2020/12/27 03:58:51;;;;;;;;;;;;;;;;;;5063126;28;19921;-83
2020/12/27 04:01:17;;;;;;;;;;;;;;;;;;5063226;28;19928;-83
2020/12/27 04:03:43;;;;;;;;;;;;;;;;;;5063485;28;19964;-83
2020/12/27 04:06:10;;;;;;;;;;;;;;;;;;5062462;28;19932;-83
2020/12/27 04:08:36;;;;;;;;;;;;;;;;;;5063136;28;20369;-83
2020/12/27 04:11:02;;;;;;;;;;;;;;;;;;5062880;28;19935;-83
2020/12/27 04:13:29;;;;;;;;;;;;;;;;;;5063988;28;19927;-83
2020/12/27 04:15:55;;;;;;;;;;;;;;;;;;5064674;28;19921;-83
2020/12/27 04:18:22;;;;;;;;;;;;;;;;;;5064384;28;19966;-83
2020/12/27 04:20:48;;;;;;;;;;;;;;;;;;5065168;28;19920;-83
2020/12/27 04:23:14;;;;;;;;;;;;;;;;;;5065906;28;19971;-82
2020/12/27 04:25:41;;;;;;;;;;;;;;;;;;5066551;28;19928;-82
2020/12/27 04:28:07;;;;;;;;;;;;;;;;;;5067029;28;19920;-83
2020/12/27 04:30:33;;;;;;;;;;;;;;;;;;5064880;28;19924;-83
2020/12/27 04:33:00;;;;;;;;;;;;;;;;;;5064527;28;19924;-83
2020/12/27 04:35:26;;;;;;;;;;;;;;;;;;5070244;28;19920;-82
2020/12/27 04:37:52;;;;;;;;;;;;;;;;;;5074503;28;19921;-82
2020/12/27 04:40:19;;;;;;;;;;;;;;;;;;5064614;28;20114;-83
2020/12/27 04:42:45;;;;;;;;;;;;;;;;;;5061412;28;19972;-83
2020/12/27 04:45:12;;;;;;;;;;;;;;;;;;5061062;28;20369;-83
2020/12/27 04:47:38;;;;;;;;;;;;;;;;;;5062637;28;19921;-83
2020/12/27 04:50:04;;;;;;;;;;;;;;;;;;5063195;28;19924;-83
2020/12/27 04:52:31;;;;;;;;;;;;;;;;;;5062981;28;19927;-83
2020/12/27 04:54:57;;;;;;;;;;;;;;;;;;5063068;28;19928;-83
2020/12/27 04:57:23;;;;;;;;;;;;;;;;;;5062329;28;19975;-83
2020/12/27 04:59:50;;;;;;;;;;;;;;;;;;5059362;28;19932;-83
2020/12/27 05:02:16;;;;;;;;;;;;;;;;;;5058217;28;19921;-83
2020/12/27 05:04:45;;;;;;;;;;;;;;;;;;5058832;28;19966;-83
2020/12/27 05:07:11;;;;;;;;;;;;;;;;;;5057953;28;19964;-83
2020/12/27 05:09:37;;;;;;;;;;;;;;;;;;5058434;28;19928;-83
2020/12/27 05:12:04;;;;;;;;;;;;;;;;;;5058955;28;19921;-84
2020/12/27 05:14:30;;;;;;;;;;;;;;;;;;5059460;28;20391;-85
2020/12/27 05:16:56;;;;;;;;;;;;;;;;;;5063743;28;19921;-85
2020/12/27 05:19:23;;;;;;;;;;;;;;;;;;5064270;28;19943;-85
2020/12/27 05:21:49;;;;;;;;;;;;;;;;;;5065035;28;19924;-85
2020/12/27 05:24:16;;;;;;;;;;;;;;;;;;5065570;28;19927;-85
2020/12/27 05:26:42;;;;;;;;;;;;;;;;;;5064771;28;19970;-85
2020/12/27 05:29:08;;;;;;;;;;;;;;;;;;5065519;28;20292;-85
2020/12/27 05:31:35;;;;;;;;;;;;;;;;;;5065438;28;19931;-85
2020/12/27 05:34:01;;;;;;;;;;;;;;;;;;5065249;28;19991;-85
2020/12/27 05:36:27;;;;;;;;;;;;;;;;;;5065979;28;19920;-85
2020/12/27 05:38:54;;;;;;;;;;;;;;;;;;5065783;28;19920;-85
2020/12/27 05:41:20;;;;;;;;;;;;;;;;;;5066186;28;19943;-85
2020/12/27 05:43:47;;;;;;;;;;;;;;;;;;5066526;28;19927;-85
2020/12/27 05:46:13;;;;;;;;;;;;;;;;;;5065658;28;20363;-85
2020/12/27 05:48:39;;;;;;;;;;;;;;;;;;5067102;28;19924;-85
2020/12/27 05:51:06;;;;;;;;;;;;;;;;;;5071633;28;20011;-85
2020/12/27 05:53:32;;;;;;;;;;;;;;;;;;5071627;28;19920;-85
2020/12/27 05:55:58;;;;;;;;;;;;;;;;;;5065351;28;19921;-85
2020/12/27 05:58:25;;;;;;;;;;;;;;;;;;5065704;28;20281;-85
2020/12/27 06:00:51;;;;;;;;;;;;;;;;;;5066663;28;19920;-85
2020/12/27 06:03:18;;;;;;;;;;;;;;;;;;5067600;28;19921;-85
2020/12/27 06:05:44;;;;;;;;;;;;;;;;;;5065914;28;19927;-85
2020/12/27 06:08:10;;;;;;;;;;;;;;;;;;5069596;28;19921;-85
2020/12/27 06:10:37;;;;;;;;;;;;;;;;;;5075203;28;19932;-85
2020/12/27 06:13:03;;;;;;;;;;;;;;;;;;5064784;28;19921;-85
2020/12/27 06:15:29;;;;;;;;;;;;;;;;;;5065493;28;19925;-83
2020/12/27 06:17:56;;;;;;;;;;;;;;;;;;5066519;28;19921;-83
2020/12/27 06:20:22;;;;;;;;;;;;;;;;;;5067277;28;19920;-84
2020/12/27 06:22:48;;;;;;;;;;;;;;;;;;5073738;28;19928;-83
2020/12/27 06:25:15;;;;;;;;;;;;;;;;;;5072403;28;19926;-85
2020/12/27 06:27:41;;;;;;;;;;;;;;;;;;5075825;28;19943;-85
2020/12/27 06:30:08;;;;;;;;;;;;;;;;;;5065219;28;19921;-85
2020/12/27 06:32:34;;;;;;;;;;;;;;;;;;5064894;28;20366;-83
2020/12/27 06:35:00;;;;;;;;;;;;;;;;;;5065857;28;19920;-85
2020/12/27 06:37:27;;;;;;;;;;;;;;;;;;5064455;28;19944;-85
2020/12/27 06:39:53;;;;;;;;;;;;;;;;;;5065353;28;19921;-85
2020/12/27 06:42:19;;;;;;;;;;;;;;;;;;5066567;28;19924;-85
2020/12/27 06:44:46;;;;;;;;;;;;;;;;;;5074584;28;19927;-85
2020/12/27 06:47:12;;;;;;;;;;;;;;;;;;5067156;28;19920;-85
2020/12/27 06:49:39;;;;;;;;;;;;;;;;;;5062476;28;19921;-85
2020/12/27 06:52:05;;;;;;;;;;;;;;;;;;5063544;28;19943;-86
2020/12/27 06:54:31;;;;;;;;;;;;;;;;;;5062845;28;19920;-85
2020/12/27 06:56:59;;;;;;;;;;;;;;;;;;5063666;28;20353;-84
2020/12/27 06:59:25;;;;;;;;;;;;;;;;;;5063132;28;20308;-84
2020/12/27 07:01:51;;;;;;;;;;;;;;;;;;5063358;28;19974;-84
2020/12/27 07:04:18;;;;;;;;;;;;;;;;;;5063808;28;19921;-84
2020/12/27 07:06:44;;;;;;;;;;;;;;;;;;5062919;28;19927;-84
2020/12/27 07:09:11;;;;;;;;;;;;;;;;;;5064117;28;19921;-83
2020/12/27 07:11:37;;;;;;;;;;;;;;;;;;5063683;28;19920;-84
2020/12/27 07:14:03;;;;;;;;;;;;;;;;;;5063241;28;19920;-84
2020/12/27 07:16:30;;;;;;;;;;;;;;;;;;5063955;28;19920;-84
2020/12/27 07:18:56;;;;;;;;;;;;;;;;;;5063294;28;20384;-84
2020/12/27 07:21:22;;;;;;;;;;;;;;;;;;5063933;28;19921;-83
2020/12/27 07:23:49;;;;;;;;;;;;;;;;;;5063290;28;19931;-84
2020/12/27 07:26:15;;;;;;;;;;;;;;;;;;5063527;28;19920;-84
2020/12/27 07:28:42;;;;;;;;;;;;;;;;;;5064229;28;19928;-84
2020/12/27 07:31:08;;;;;;;;;;;;;;;;;;5064083;28;19971;-84
2020/12/27 07:33:34;;;;;;;;;;;;;;;;;;5065143;28;19924;-84
2020/12/27 07:36:01;;;;;;;;;;;;;;;;;;5064117;28;19924;-84
2020/12/27 07:38:27;;;;;;;;;;;;;;;;;;5064481;28;19944;-84
2020/12/27 07:40:54;;;;;;;;;;;;;;;;;;5064629;28;19928;-84
2020/12/27 07:43:20;;;;;;;;;;;;;;;;;;5066022;28;19943;-84
2020/12/27 07:45:47;;;;;;;;;;;;;;;;;;5065511;28;19959;-84
2020/12/27 07:48:13;;;;;;;;;;;;;;;;;;5065479;28;19928;-84
2020/12/27 07:50:40;;;;;;;;;;;;;;;;;;5064617;28;19925;-85
2020/12/27 07:53:06;;;;;;;;;;;;;;;;;;5065193;28;19921;-83
2020/12/27 07:55:34;;;;;;;;;;;;;;;;;;5066078;28;19921;-85
2020/12/27 07:58:00;;;;;;;;;;;;;;;;;;5071000;28;19920;-83
2020/12/27 08:00:26;;;;;;;;;;;;;;;;;;5072735;28;19921;-83
2020/12/27 08:02:53;;;;;;;;;;;;;;;;;;5067043;28;19944;-84
2020/12/27 08:05:19;;;;;;;;;;;;;;;;;;5070204;28;19947;-80
2020/12/27 08:07:46;;;;;;;;;;;;;;;;;;5071343;28;20370;-83
2020/12/27 08:10:12;;;;;;;;;;;;;;;;;;5065450;28;19928;-83
2020/12/27 08:12:39;;;;;;;;;;;;;;;;;;5076573;28;19942;-83
2020/12/27 08:15:05;;;;;;;;;;;;;;;;;;5066960;28;19921;-83
2020/12/27 08:17:31;;;;;;;;;;;;;;;;;;5063801;28;19920;-85
2020/12/27 08:19:58;;;;;;;;;;;;;;;;;;5067826;28;19920;-83
2020/12/27 08:22:24;;;;;;;;;;;;;;;;;;5069729;28;19921;-85
2020/12/27 08:24:50;;;;;;;;;;;;;;;;;;5063787;28;19927;-85
2020/12/27 08:27:17;;;;;;;;;;;;;;;;;;5063092;28;20389;-85
2020/12/27 08:29:43;;;;;;;;;;;;;;;;;;5072867;28;19943;-84
2020/12/27 08:32:10;;;;;;;;;;;;;;;;;;5070778;28;19928;-84
2020/12/27 08:34:36;;;;;;;;;;;;;;;;;;5063152;28;19921;-83
2020/12/27 08:37:02;;;;;;;;;;;;;;;;;;5062398;28;19928;-85
2020/12/27 08:39:29;;;;;;;;;;;;;;;;;;5063549;28;19925;-84
2020/12/27 08:41:55;;;;;;;;;;;;;;;;;;5062053;28;19921;-85
2020/12/27 08:44:21;;;;;;;;;;;;;;;;;;5063175;28;19970;-85
2020/12/27 08:46:48;;;;;;;;;;;;;;;;;;5067508;28;19921;-82
2020/12/27 08:49:14;;;;;;;;;;;;;;;;;;5072911;28;19927;-83
2020/12/27 08:51:41;;;;;;;;;;;;;;;;;;5063457;28;20339;-83
2020/12/27 08:54:07;;;;;;;;;;;;;;;;;;5063034;28;19921;-83
2020/12/27 08:56:33;;;;;;;;;;;;;;;;;;5061920;28;20382;-83
2020/12/27 08:59:00;;;;;;;;;;;;;;;;;;5062539;28;19928;-83
2020/12/27 09:01:27;;;;;;;;;;;;;;;;;;5062874;28;19921;-83
2020/12/27 09:03:54;;;;;;;;;;;;;;;;;;5065066;28;19921;-85
2020/12/27 09:06:20;;;;;;;;;;;;;;;;;;5067185;28;19920;-82
2020/12/27 09:08:47;;;;;;;;;;;;;;;;;;5045221;28;19921;-83
2020/12/27 09:11:13;;;;;;;;;;;;;;;;;;5041683;28;20362;-83
2020/12/27 09:13:40;;;;;;;;;;;;;;;;;;5048423;28;19921;-83
2020/12/27 09:16:06;;;;;;;;;;;;;;;;;;5062495;28;19921;-83
2020/12/27 09:18:32;;;;;;;;;;;;;;;;;;5061836;28;19943;-82
2020/12/27 09:20:59;;;;;;;;;;;;;;;;;;5053860;28;19924;-83
2020/12/27 09:23:25;;;;;;;;;;;;;;;;;;5054068;28;19920;-85
2020/12/27 09:25:52;;;;;;;;;;;;;;;;;;5048663;28;19920;-83
2020/12/27 09:28:18;;;;;;;;;;;;;;;;;;5041964;28;20408;-83
2020/12/27 09:30:44;;;;;;;;;;;;;;;;;;5041991;28;19936;-85
2020/12/27 09:33:22;;;;;;;;;;;;;;;;;;5041757;28;20011;-85
2020/12/27 09:35:48;;;;;;;;;;;;;;;;;;5058115;28;19953;-85
2020/12/27 09:38:14;;;;;;;;;;;;;;;;;;5061259;28;19958;-85
2020/12/27 09:40:41;;;;;;;;;;;;;;;;;;5061774;28;20026;-85
2020/12/27 09:43:07;;;;;;;;;;;;;;;;;;5061613;28;19960;-85
2020/12/27 09:45:34;;;;;;;;;;;;;;;;;;5061112;28;20579;-85
2020/12/27 09:48:00;;;;;;;;;;;;;;;;;;5064238;28;19931;-84
2020/12/27 09:50:26;;;;;;;;;;;;;;;;;;5054888;28;19938;-85
2020/12/27 09:52:53;;;;;;;;;;;;;;;;;;5059729;28;19975;-85
2020/12/27 09:55:19;;;;;;;;;;;;;;;;;;5060077;28;19924;-83
2020/12/27 09:57:45;;;;;;;;;;;;;;;;;;5061330;28;19920;-82
2020/12/27 10:00:12;;;;;;;;;;;;;;;;;;5064771;28;20355;-82
2020/12/27 10:02:38;;;;;;;;;;;;;;;;;;5064194;28;19925;-82
2020/12/27 10:05:05;;;;;;;;;;;;;;;;;;5041114;28;19944;-85
2020/12/27 10:07:31;;;;;;;;;;;;;;;;;;5050592;28;19927;-83
2020/12/27 10:09:57;;;;;;;;;;;;;;;;;;5060594;28;19921;-85
2020/12/27 10:12:24;;;;;;;;;;;;;;;;;;5060610;28;20351;-85
2020/12/27 10:14:50;;;;;;;;;;;;;;;;;;5061386;28;19921;-86
2020/12/27 10:28:35;;;;;;;;;;;;;;;;;;5063273;28;19920;-83
2020/12/27 10:31:01;;;;;;;;;;;;;;;;;;5061594;28;19921;-83
2020/12/27 10:44:20;;;;;;;;;;;;;;;;;;5015092;28;19912;-84
2020/12/27 10:46:54;;;;;;;;;;;;;;;;;;5014208;28;19921;-84
2020/12/27 10:49:20;;;;;;;;;;;;;;;;;;5004536;28;19927;-82
2020/12/27 10:51:46;;;;;;;;;;;;;;;;;;4997748;28;20030;-83
2020/12/27 10:54:13;;;;;;;;;;;;;;;;;;4995177;28;19945;-82
2020/12/27 11:07:36;;;;;;;;;;;;;;;;;;4959054;29;19918;-82
2020/12/27 11:10:02;;;;;;;;;;;;;;;;;;4953453;29;19922;-85
2020/12/27 11:12:29;;;;;;;;;;;;;;;;;;4955898;29;19927;-83
2020/12/27 11:14:56;;;;;;;;;;;;;;;;;;4939670;29;19923;-85
2020/12/27 11:17:22;;;;;;;;;;;;;;;;;;4951657;29;19926;-85
2020/12/27 11:19:49;;;;;;;;;;;;;;;;;;5012840;28;19929;-85
2020/12/27 11:22:15;;;;;;;;;;;;;;;;;;5021002;28;19977;-85
2020/12/27 11:24:41;;;;;;;;;;;;;;;;;;5028222;28;19928;-82
2020/12/27 11:27:08;;;;;;;;;;;;;;;;;;5031436;28;19905;-82
2020/12/27 11:29:34;;;;;;;;;;;;;;;;;;5025806;28;19976;-85
2020/12/27 11:32:01;;;;;;;;;;;;;;;;;;5020118;28;19921;-82
2020/12/27 11:34:27;;;;;;;;;;;;;;;;;;5034327;28;19921;-83
2020/12/27 11:36:53;;;;;;;;;;;;;;;;;;5032059;28;19922;-84
2020/12/27 11:39:20;;;;;;;;;;;;;;;;;;5030126;28;20410;-85
2020/12/27 11:41:46;;;;;;;;;;;;;;;;;;5019493;28;19922;-84
2020/12/27 11:44:13;;;;;;;;;;;;;;;;;;5022630;28;19952;-84
2020/12/27 11:46:39;;;;;;;;;;;;;;;;;;5058317;28;19925;-86
2020/12/27 11:49:07;;;;;;;;;;;;;;;;;;5064597;28;19920;-86
2020/12/27 11:51:33;;;;;;;;;;;;;;;;;;5064752;28;20027;-85
2020/12/27 11:54:00;;;;;;;;;;;;;;;;;;5064916;28;19921;-85
2020/12/27 11:56:26;;;;;;;;;;;;;;;;;;5064858;28;19920;-84
2020/12/27 11:58:52;;;;;;;;;;;;;;;;;;5064708;28;19943;-85
2020/12/27 12:01:19;;;;;;;;;;;;;;;;;;5070049;28;19932;-84
2020/12/27 12:03:45;;;;;;;;;;;;;;;;;;5076111;28;19921;-84
2020/12/27 12:06:13;;;;;;;;;;;;;;;;;;5064485;28;19924;-86
2020/12/27 12:08:39;;;;;;;;;;;;;;;;;;5078251;28;19921;-86
2020/12/27 12:11:05;;;;;;;;;;;;;;;;;;5077063;28;20369;-84
2020/12/27 12:13:32;;;;;;;;;;;;;;;;;;5063935;28;19921;-85
2020/12/27 12:15:58;;;;;;;;;;;;;;;;;;5063485;28;19932;-85
2020/12/27 12:18:25;;;;;;;;;;;;;;;;;;5063444;28;19921;-84
2020/12/27 12:20:51;;;;;;;;;;;;;;;;;;5063074;28;19920;-86
2020/12/27 12:23:18;;;;;;;;;;;;;;;;;;5063328;28;19943;-85
2020/12/27 12:25:45;;;;;;;;;;;;;;;;;;5064959;28;20305;-84
2020/12/27 12:28:11;;;;;;;;;;;;;;;;;;5075003;28;19927;-85
2020/12/27 12:30:38;;;;;;;;;;;;;;;;;;5066161;28;19928;-86
2020/12/27 12:33:04;;;;;;;;;;;;;;;;;;5063577;28;19925;-84
2020/12/27 12:35:31;;;;;;;;;;;;;;;;;;5062396;28;19921;-85
2020/12/27 12:37:57;;;;;;;;;;;;;;;;;;5063653;28;19951;-84
2020/12/27 12:40:24;;;;;;;;;;;;;;;;;;5063369;28;19927;-85
2020/12/27 12:42:50;;;;;;;;;;;;;;;;;;5082379;28;19946;-86
2020/12/27 12:45:16;;;;;;;;;;;;;;;;;;5076201;28;20365;-85
2020/12/27 12:47:43;;;;;;;;;;;;;;;;;;5062720;28;19928;-85
2020/12/27 12:50:09;;;;;;;;;;;;;;;;;;5062111;28;19927;-85
2020/12/27 12:52:36;;;;;;;;;;;;;;;;;;5062873;28;19927;-85
2020/12/27 12:55:02;;;;;;;;;;;;;;;;;;5061867;28;19928;-85
2020/12/27 12:57:29;;;;;;;;;;;;;;;;;;5062101;28;19925;-85
2020/12/27 12:59:55;;;;;;;;;;;;;;;;;;5066206;28;20296;-85
2020/12/27 13:02:21;;;;;;;;;;;;;;;;;;5062016;28;19966;-85
2020/12/27 13:04:48;;;;;;;;;;;;;;;;;;5062030;28;20090;-85
2020/12/27 13:07:14;;;;;;;;;;;;;;;;;;5061770;28;20261;-85
2020/12/27 13:09:40;;;;;;;;;;;;;;;;;;5062008;28;19978;-85
2020/12/27 13:12:07;;;;;;;;;;;;;;;;;;5062546;28;20351;-85
2020/12/27 13:14:34;;;;;;;;;;;;;;;;;;5061995;28;19924;-85
2020/12/27 13:17:00;;;;;;;;;;;;;;;;;;5061847;28;19928;-85
2020/12/27 13:19:27;;;;;;;;;;;;;;;;;;5062544;28;19920;-85
2020/12/27 13:21:53;;;;;;;;;;;;;;;;;;5064264;28;19921;-85
2020/12/27 13:24:19;;;;;;;;;;;;;;;;;;5073178;28;20419;-85
2020/12/27 13:26:46;;;;;;;;;;;;;;;;;;5064713;28;19931;-85
2020/12/27 13:29:12;;;;;;;;;;;;;;;;;;5061479;28;19943;-85
2020/12/27 13:31:38;;;;;;;;;;;;;;;;;;5061241;28;19924;-85
2020/12/27 13:34:05;;;;;;;;;;;;;;;;;;5079756;28;19920;-85
2020/12/27 13:36:31;;;;;;;;;;;;;;;;;;5080971;28;19927;-85
2020/12/27 13:38:58;;;;;;;;;;;;;;;;;;5075976;28;20296;-85
2020/12/27 13:41:25;;;;;;;;;;;;;;;;;;5060894;28;19921;-85
2020/12/27 13:43:51;;;;;;;;;;;;;;;;;;5060681;28;19921;-85
2020/12/27 13:46:17;;;;;;;;;;;;;;;;;;5060842;28;19921;-85
2020/12/27 13:48:44;;;;;;;;;;;;;;;;;;5060636;28;19920;-85
2020/12/27 13:51:10;;;;;;;;;;;;;;;;;;5081030;28;19979;-85
2020/12/27 13:53:37;;;;;;;;;;;;;;;;;;5070840;28;19924;-85
2020/12/27 13:56:03;;;;;;;;;;;;;;;;;;5060992;28;19920;-85
2020/12/27 13:58:29;;;;;;;;;;;;;;;;;;5060443;28;20373;-85
2020/12/27 14:00:56;;;;;;;;;;;;;;;;;;5060629;28;19927;-85
2020/12/27 14:03:22;;;;;;;;;;;;;;;;;;5061190;28;20369;-85
2020/12/27 14:05:49;;;;;;;;;;;;;;;;;;5060737;28;19921;-86
2020/12/27 14:08:15;;;;;;;;;;;;;;;;;;5061346;28;19924;-87
2020/12/27 14:10:41;;;;;;;;;;;;;;;;;;5062127;28;19921;-87
2020/12/27 14:13:08;;;;;;;;;;;;;;;;;;5062399;28;20340;-87
2020/12/27 14:15:53;;;;;;;;;;;;;;;;;;5062013;28;19921;-91
2020/12/27 14:18:19;;;;;;;;;;;;;;;;;;5061995;28;19920;-87
2020/12/27 14:20:45;;;;;;;;;;;;;;;;;;5061855;28;20011;-87
2020/12/27 14:23:12;;;;;;;;;;;;;;;;;;5062792;28;19920;-87
2020/12/27 14:25:38;;;;;;;;;;;;;;;;;;5061713;28;19936;-86
2020/12/27 14:28:04;;;;;;;;;;;;;;;;;;5062318;28;19921;-86
2020/12/27 14:30:31;;;;;;;;;;;;;;;;;;5046003;28;19921;-86
2020/12/27 14:32:57;;;;;;;;;;;;;;;;;;5063412;28;19925;-86
2020/12/27 14:35:24;;;;;;;;;;;;;;;;;;5064483;28;19921;-86
2020/12/27 14:37:50;;;;;;;;;;;;;;;;;;5064642;28;19921;-86
2020/12/27 14:40:16;;;;;;;;;;;;;;;;;;5064928;28;19947;-85
2020/12/27 14:42:43;;;;;;;;;;;;;;;;;;5066420;28;19920;-84
2020/12/27 14:45:09;;;;;;;;;;;;;;;;;;5065930;28;19920;-83
2020/12/27 14:50:19;;;;;;;;;;;;;;;;;;5061385;28;19917;-83
2020/12/27 14:52:46;;;;;;;;;;;;;;;;;;5068145;28;19920;-83
2020/12/27 14:55:17;;;;;;;;;;;;;;;;;;5071016;28;19921;-83
2020/12/27 14:57:43;;;;;;;;;;;;;;;;;;5071356;28;19943;-82
2020/12/27 15:00:10;;;;;;;;;;;;;;;;;;5096163;28;19927;-85
2020/12/27 15:02:36;;;;;;;;;;;;;;;;;;5068409;28;19928;-84
2020/12/27 15:05:04;;;;;;;;;;;;;;;;;;5058610;28;19921;-84
2020/12/27 15:07:30;;;;;;;;;;;;;;;;;;5062448;28;19920;-85
2020/12/27 15:09:56;;;;;;;;;;;;;;;;;;5063828;28;19927;-85
2020/12/27 15:12:23;;;;;;;;;;;;;;;;;;5071770;28;19928;-84
2020/12/27 15:14:49;;;;;;;;;;;;;;;;;;5074089;28;19966;-85
2020/12/27 15:17:15;;;;;;;;;;;;;;;;;;5060200;28;19921;-84
2020/12/27 15:19:42;;;;;;;;;;;;;;;;;;5063468;28;19920;-84
2020/12/27 15:22:08;;;;;;;;;;;;;;;;;;5062490;28;19924;-84
2020/12/27 15:24:35;;;;;;;;;;;;;;;;;;5062348;28;19987;-84
2020/12/27 15:27:01;;;;;;;;;;;;;;;;;;5061823;28;19921;-84
2020/12/27 15:29:27;;;;;;;;;;;;;;;;;;5062768;28;19988;-84
2020/12/27 15:31:54;;;;;;;;;;;;;;;;;;5072206;28;19921;-85
2020/12/27 15:34:21;;;;;;;;;;;;;;;;;;5066081;28;19956;-85
2020/12/27 15:36:47;;;;;;;;;;;;;;;;;;5061897;28;19921;-85
2020/12/27 15:39:14;;;;;;;;;;;;;;;;;;5062981;28;20281;-85
2020/12/27 15:41:40;;;;;;;;;;;;;;;;;;5063287;28;19921;-85
2020/12/27 15:44:06;;;;;;;;;;;;;;;;;;5060572;28;19932;-84
2020/12/27 15:46:33;;;;;;;;;;;;;;;;;;5058104;28;19924;-84
2020/12/27 15:48:59;;;;;;;;;;;;;;;;;;5063464;28;19983;-84
2020/12/27 15:51:26;;;;;;;;;;;;;;;;;;5059304;28;19921;-84
2020/12/27 15:53:52;;;;;;;;;;;;;;;;;;5059308;28;19987;-84
2020/12/27 15:56:19;;;;;;;;;;;;;;;;;;5058314;28;19920;-84
2020/12/27 15:58:45;;;;;;;;;;;;;;;;;;5058900;28;19921;-84
2020/12/27 16:01:11;;;;;;;;;;;;;;;;;;5059457;28;19920;-84
2020/12/27 16:03:38;;;;;;;;;;;;;;;;;;5059712;28;19921;-84
2020/12/27 16:06:10;;;;;;;;;;;;;;;;;;5058982;28;19921;-84
2020/12/27 16:08:36;;;;;;;;;;;;;;;;;;5054186;28;19921;-84
2020/12/27 16:11:02;;;;;;;;;;;;;;;;;;5059708;28;19964;-84
2020/12/27 16:13:29;;;;;;;;;;;;;;;;;;5058576;28;19927;-84
2020/12/27 16:15:55;;;;;;;;;;;;;;;;;;5046714;28;20032;-84
2020/12/27 16:18:22;;;;;;;;;;;;;;;;;;5042886;28;19921;-85
2020/12/27 16:20:48;;;;;;;;;;;;;;;;;;5058675;28;19925;-84
2020/12/27 16:23:18;;;;;;;;;;;;;;;;;;5058702;28;19967;-84
2020/12/27 16:25:44;;;;;;;;;;;;;;;;;;5057572;28;20381;-84
2020/12/27 16:28:10;;;;;;;;;;;;;;;;;;5058528;28;19924;-84
2020/12/27 16:30:37;;;;;;;;;;;;;;;;;;5059981;28;19990;-84
2020/12/27 16:33:06;;;;;;;;;;;;;;;;;;5066880;28;19921;-84
2020/12/27 16:35:32;;;;;;;;;;;;;;;;;;5059644;28;19924;-85
2020/12/27 16:37:59;;;;;;;;;;;;;;;;;;5061384;28;19920;-84
2020/12/27 16:40:30;;;;;;;;;;;;;;;;;;5060637;28;20374;-84
2020/12/27 16:42:56;;;;;;;;;;;;;;;;;;5065740;28;19979;-84
2020/12/27 16:45:23;;;;;;;;;;;;;;;;;;5056467;28;19943;-85
2020/12/27 16:47:49;;;;;;;;;;;;;;;;;;5061750;28;20304;-85
2020/12/27 16:50:16;;;;;;;;;;;;;;;;;;5061041;28;19928;-84
2020/12/27 16:52:42;;;;;;;;;;;;;;;;;;5062314;28;20273;-84
2020/12/27 16:55:09;;;;;;;;;;;;;;;;;;5062367;28;19927;-85
2020/12/27 16:57:35;;;;;;;;;;;;;;;;;;5062022;28;19920;-85
2020/12/27 17:00:01;;;;;;;;;;;;;;;;;;5059689;28;19925;-85
2020/12/27 17:02:28;;;;;;;;;;;;;;;;;;5066806;28;19912;-84
2020/12/27 17:04:54;;;;;;;;;;;;;;;;;;5071773;28;19928;-85
2020/12/27 17:07:20;;;;;;;;;;;;;;;;;;5058427;28;19921;-85
2020/12/27 17:09:47;;;;;;;;;;;;;;;;;;5061623;28;19925;-85
2020/12/27 17:12:13;;;;;;;;;;;;;;;;;;5061140;28;19920;-85
2020/12/27 17:14:40;;;;;;;;;;;;;;;;;;5044984;28;19921;-86
2020/12/27 17:17:06;;;;;;;;;;;;;;;;;;5058063;28;19917;-85